CTR3 weather

Tottenham/Ronan Aerodrome
Tottenham, Ontario, Canada

Public forecast

Using degrees Celsius for public forecast. Weather courtesy of forecast.io.

METAR (pilot weather report)

Closest report is CFB Borden, 14.1 nm (26.1 km) NNW. Retrieved 2019/05/21 16:00 UTC (10 minutes ago):

CYBN 211600Z AUTO 32011G20KT 290V350 9SM CLR 13/04 A3016 RMK SLP217

TAF (pilot weather forecast)

Closest forecast is CFB Borden, 14.1 nm (26.1 km) NNW. Retrieved 2019/05/21 12:33 UTC (4 hours ago):

TAF TAF CYBN 211130Z 2112/2124 33010KT P6SM SKC BECMG 2112/2114 33012G22KT BECMG 2117/2119 34012KT RMK FCST BASED ON AUTO OBS. NXT FCST BY 211800Z